createdAt,value
2022-12-29T00:02:43.469Z,1.0
2022-12-29T00:05:14.654Z,1.0
2022-12-29T00:07:45.441Z,0.9
2022-12-29T00:10:16.242Z,0.9
2022-12-29T00:12:47.043Z,0.8
2022-12-29T00:15:27.826Z,0.8
2022-12-29T00:17:58.847Z,0.7
2022-12-29T00:20:29.668Z,0.7
2022-12-29T00:23:00.523Z,0.7
2022-12-29T00:25:31.386Z,0.7
2022-12-29T00:28:13.135Z,0.7
2022-12-29T00:30:44.809Z,0.7
2022-12-29T00:33:15.803Z,0.7
2022-12-29T00:35:46.571Z,0.7
2022-12-29T00:38:17.415Z,0.7
2022-12-29T00:43:28.666Z,0.9
2022-12-29T00:45:59.612Z,0.9
2022-12-29T00:48:36.388Z,1.0
2022-12-29T00:51:07.177Z,1.1
2022-12-29T00:53:38.802Z,1.1
2022-12-29T00:56:09.687Z,1.1
2022-12-29T00:58:40.495Z,1.2
2022-12-29T01:01:21.286Z,1.3
2022-12-29T01:03:42.452Z,1.2
2022-12-29T01:06:14.930Z,1.2
2022-12-29T01:08:45.689Z,1.3
2022-12-29T01:11:16.537Z,1.3
2022-12-29T01:13:58.457Z,1.3
2022-12-29T01:16:29.299Z,1.3
2022-12-29T01:19:00.133Z,1.4
2022-12-29T01:24:01.115Z,1.5
2022-12-29T01:26:31.894Z,1.5
2022-12-29T01:29:12.721Z,1.5
2022-12-29T01:31:43.528Z,1.6
2022-12-29T01:34:14.507Z,1.6
2022-12-29T01:36:45.279Z,1.7
2022-12-29T01:39:16.030Z,1.8
2022-12-29T01:41:47.033Z,1.8
2022-12-29T01:44:27.782Z,1.9
2022-12-29T01:46:58.563Z,1.9
2022-12-29T01:49:29.326Z,1.9
2022-12-29T01:52:00.113Z,1.9
2022-12-29T01:54:30.930Z,1.9
2022-12-29T01:57:11.719Z,2.0
2022-12-29T01:59:42.469Z,2.1
2022-12-29T02:04:43.374Z,2.2
2022-12-29T02:07:15.299Z,2.3
2022-12-29T02:09:46.094Z,2.3
2022-12-29T02:12:27.607Z,2.4
2022-12-29T02:14:58.376Z,2.3
2022-12-29T02:17:29.267Z,2.3
2022-12-29T02:20:00.048Z,2.3
2022-12-29T02:22:30.877Z,2.3
2022-12-29T02:25:01.642Z,2.3
2022-12-29T02:27:42.517Z,2.2
2022-12-29T02:32:43.408Z,2.2
2022-12-29T02:35:14.403Z,2.2
2022-12-29T02:37:45.269Z,2.3
2022-12-29T02:40:16.056Z,2.3
2022-12-29T02:45:26.962Z,2.3
2022-12-29T02:47:57.854Z,2.4
2022-12-29T02:50:28.766Z,2.3
2022-12-29T02:52:59.506Z,2.4
2022-12-29T02:55:30.306Z,2.5
2022-12-29T02:58:11.267Z,2.6
2022-12-29T03:00:42.942Z,2.7
2022-12-29T03:03:13.978Z,2.7
2022-12-29T03:05:45.205Z,2.7
2022-12-29T03:08:16.024Z,2.9
2022-12-29T03:10:56.808Z,2.8
2022-12-29T03:13:28.645Z,2.9
2022-12-29T03:15:59.432Z,2.9
2022-12-29T03:18:30.231Z,2.8
2022-12-29T03:21:01.007Z,2.8
2022-12-29T03:26:11.982Z,3.0
2022-12-29T03:28:42.730Z,3.1
2022-12-29T03:31:13.526Z,3.1
2022-12-29T03:33:45.336Z,3.1
2022-12-29T03:36:16.074Z,3.1
2022-12-29T03:38:49.042Z,3.1
2022-12-29T03:41:29.875Z,3.1
2022-12-29T03:44:00.634Z,3.1
2022-12-29T03:46:31.419Z,3.0
2022-12-29T03:49:02.268Z,3.0
2022-12-29T03:51:33.021Z,3.1
2022-12-29T03:54:03.790Z,3.2
2022-12-29T03:56:45.033Z,3.3
2022-12-29T03:59:15.800Z,3.7
2022-12-29T04:01:46.630Z,3.9
2022-12-29T04:06:47.922Z,4.0
2022-12-29T04:09:28.739Z,4.1
2022-12-29T04:11:59.726Z,4.1
2022-12-29T04:14:30.482Z,4.3
2022-12-29T04:17:01.258Z,4.3
2022-12-29T04:19:32.032Z,4.3
2022-12-29T04:22:02.805Z,4.2
2022-12-29T04:24:43.598Z,4.1
2022-12-29T04:27:04.463Z,3.9
2022-12-29T04:29:35.281Z,3.8
2022-12-29T04:32:06.038Z,3.8
2022-12-29T04:34:36.802Z,3.7
2022-12-29T04:37:07.593Z,3.5
2022-12-29T04:39:48.390Z,3.6
2022-12-29T04:42:19.200Z,3.6
2022-12-29T04:47:30.105Z,3.9
2022-12-29T04:50:00.904Z,3.8
2022-12-29T04:52:31.678Z,3.9
2022-12-29T04:55:12.426Z,3.9
2022-12-29T04:57:43.172Z,3.8
2022-12-29T05:00:14.002Z,3.7
2022-12-29T05:02:44.865Z,3.6
2022-12-29T05:05:06.325Z,3.5
2022-12-29T05:07:47.146Z,3.5
2022-12-29T05:10:18.007Z,3.4
2022-12-29T05:12:49.134Z,3.3
2022-12-29T05:15:19.931Z,3.2
2022-12-29T05:17:50.724Z,3.2
2022-12-29T05:20:21.465Z,3.1
2022-12-29T05:23:02.236Z,3.1
2022-12-29T05:28:03.150Z,3.1
2022-12-29T05:33:05.229Z,2.9
2022-12-29T05:35:35.967Z,2.8
2022-12-29T05:38:16.750Z,2.7
2022-12-29T05:40:49.307Z,2.6
2022-12-29T05:43:20.112Z,2.5
2022-12-29T05:45:50.869Z,2.4
2022-12-29T05:48:21.729Z,2.3
2022-12-29T05:50:58.240Z,2.2
2022-12-29T05:53:39.027Z,2.2
2022-12-29T05:56:09.819Z,2.2
2022-12-29T05:58:40.590Z,2.3
2022-12-29T06:01:11.384Z,2.2
2022-12-29T06:03:47.875Z,2.1
2022-12-29T06:08:49.174Z,1.9
2022-12-29T06:11:19.993Z,1.7
2022-12-29T06:13:50.772Z,1.6
2022-12-29T06:16:21.623Z,1.5
2022-12-29T06:18:52.581Z,1.3
2022-12-29T06:21:33.367Z,1.1
2022-12-29T06:24:04.148Z,1.0
2022-12-29T06:26:35.013Z,0.8
2022-12-29T06:29:05.791Z,0.6
2022-12-29T06:31:36.633Z,0.5
2022-12-29T06:34:08.584Z,0.3
2022-12-29T06:36:49.569Z,0.2
2022-12-29T06:39:20.308Z,0.0
2022-12-29T06:41:51.111Z,0.0
2022-12-29T06:44:21.837Z,-0.1
2022-12-29T06:49:22.752Z,-0.3
2022-12-29T06:52:07.537Z,-0.5
2022-12-29T06:54:29.849Z,-0.6
2022-12-29T06:57:00.659Z,-0.7
2022-12-29T06:59:31.550Z,-0.8
2022-12-29T07:02:02.447Z,-0.8
2022-12-29T07:04:33.793Z,-0.9
2022-12-29T07:07:14.594Z,-0.9
2022-12-29T07:09:45.389Z,-1.0
2022-12-29T07:12:16.210Z,-0.9
2022-12-29T07:14:48.125Z,-0.7
2022-12-29T07:17:19.159Z,-0.7
2022-12-29T07:19:49.945Z,-0.5
2022-12-29T07:22:30.861Z,-0.4
2022-12-29T07:25:01.654Z,-0.1
2022-12-29T07:30:02.689Z,0.5
2022-12-29T07:32:33.442Z,0.7
2022-12-29T07:35:14.235Z,0.9
2022-12-29T07:37:45.006Z,1.0
2022-12-29T07:40:15.831Z,1.1
2022-12-29T07:42:46.632Z,1.3
2022-12-29T07:45:17.598Z,1.4
2022-12-29T07:47:48.501Z,1.5
2022-12-29T07:50:29.283Z,1.5
2022-12-29T07:53:00.131Z,1.6
2022-12-29T07:55:30.949Z,1.7
2022-12-29T07:58:01.909Z,1.7
2022-12-29T08:00:32.683Z,1.8
2022-12-29T08:03:03.573Z,2.0
2022-12-29T08:05:44.681Z,2.2
2022-12-29T08:10:45.543Z,2.7
2022-12-29T08:13:16.333Z,3.1
2022-12-29T08:15:47.155Z,3.3
2022-12-29T08:18:18.104Z,3.5
2022-12-29T08:20:58.892Z,3.6
2022-12-29T08:23:29.666Z,3.8
2022-12-29T08:26:00.417Z,3.8
2022-12-29T08:28:31.183Z,3.9
2022-12-29T08:33:32.126Z,4.0
2022-12-29T08:36:12.949Z,4.1
2022-12-29T08:38:43.859Z,4.2
2022-12-29T08:41:14.604Z,4.2
2022-12-29T08:43:45.340Z,4.3
2022-12-29T08:46:16.155Z,4.5
2022-12-29T08:51:27.165Z,4.6
2022-12-29T08:53:58.151Z,4.6
2022-12-29T08:56:28.946Z,4.7
2022-12-29T08:58:59.771Z,4.7
2022-12-29T09:01:30.630Z,4.9
2022-12-29T09:04:15.264Z,4.9
2022-12-29T09:06:47.559Z,5.2
2022-12-29T09:09:18.339Z,5.2
2022-12-29T09:11:49.130Z,5.2
2022-12-29T09:14:19.882Z,5.2
2022-12-29T09:16:50.610Z,5.2
2022-12-29T09:19:31.455Z,5.2
2022-12-29T09:22:02.355Z,5.2
2022-12-29T09:24:33.870Z,5.3
2022-12-29T09:27:04.626Z,5.4
2022-12-29T09:32:07.747Z,5.3
2022-12-29T09:34:44.038Z,5.2
2022-12-29T09:37:14.915Z,5.3
2022-12-29T09:39:49.144Z,5.5
2022-12-29T09:42:11.419Z,5.6
2022-12-29T09:44:42.272Z,5.5
2022-12-29T09:47:23.107Z,5.5
2022-12-29T09:49:54.949Z,5.5
2022-12-29T09:52:25.723Z,5.7
2022-12-29T09:55:02.287Z,5.8
2022-12-29T09:57:34.743Z,5.9
2022-12-29T10:00:05.535Z,6.0
2022-12-29T10:02:46.448Z,6.0
2022-12-29T10:05:17.580Z,6.1
2022-12-29T10:07:48.348Z,6.2
2022-12-29T10:12:46.144Z,6.4
2022-12-29T10:15:16.898Z,6.6
2022-12-29T10:17:57.680Z,6.8
2022-12-29T10:20:28.455Z,7.0
2022-12-29T10:25:31.303Z,7.5
2022-12-29T10:28:03.671Z,7.5
2022-12-29T10:30:34.502Z,7.6
2022-12-29T10:33:15.279Z,7.6
2022-12-29T10:35:46.073Z,7.6
2022-12-29T10:38:16.839Z,7.6
2022-12-29T10:40:47.721Z,7.7
2022-12-29T10:43:21.216Z,8.0
2022-12-29T10:45:42.225Z,8.0
2022-12-29T10:48:27.179Z,8.0
2022-12-29T10:53:31.040Z,8.1
2022-12-29T10:56:01.790Z,8.2
2022-12-29T10:58:32.766Z,8.2
2022-12-29T11:01:09.840Z,8.3
2022-12-29T11:03:40.937Z,8.3
2022-12-29T11:06:11.669Z,8.3
2022-12-29T11:08:42.435Z,8.2
2022-12-29T11:11:13.188Z,8.2
2022-12-29T11:13:43.942Z,8.2
2022-12-29T11:16:24.827Z,8.2
2022-12-29T11:18:56.138Z,8.2
2022-12-29T11:21:26.899Z,8.3
2022-12-29T11:23:57.648Z,8.3
2022-12-29T11:26:33.749Z,8.4
2022-12-29T11:28:54.939Z,8.4
2022-12-29T11:34:05.957Z,8.5
2022-12-29T11:36:37.210Z,8.7
2022-12-29T11:39:13.822Z,8.6
2022-12-29T11:41:44.785Z,8.8
2022-12-29T11:44:15.582Z,8.9
2022-12-29T11:46:56.342Z,9.1
2022-12-29T11:49:27.116Z,9.1
2022-12-29T11:51:57.988Z,9.1
2022-12-29T11:54:28.815Z,9.2
2022-12-29T11:56:59.615Z,9.3
2022-12-29T11:59:30.380Z,9.3
2022-12-29T12:02:11.208Z,9.3
2022-12-29T12:04:37.532Z,9.4
2022-12-29T12:07:08.315Z,9.4
2022-12-29T12:09:39.204Z,9.4
2022-12-29T12:14:47.459Z,9.3
2022-12-29T12:17:18.261Z,9.4
2022-12-29T12:19:49.069Z,9.4
2022-12-29T12:22:19.814Z,9.4
2022-12-29T12:24:50.594Z,9.4
2022-12-29T12:27:21.340Z,9.4
2022-12-29T12:30:02.116Z,9.6
2022-12-29T12:32:32.901Z,9.7
2022-12-29T12:35:03.701Z,9.7
2022-12-29T12:37:41.883Z,9.9
2022-12-29T12:40:12.784Z,9.6
2022-12-29T12:42:44.022Z,9.7
2022-12-29T12:45:25.124Z,9.7
2022-12-29T12:47:55.911Z,9.7
2022-12-29T12:50:26.698Z,9.8
2022-12-29T12:55:27.645Z,9.9
2022-12-29T12:57:58.400Z,9.8
2022-12-29T13:00:39.195Z,9.9
2022-12-29T13:03:10.072Z,9.8
2022-12-29T13:05:41.254Z,10.0
2022-12-29T13:08:12.031Z,10.0
2022-12-29T13:10:44.930Z,10.1
2022-12-29T13:13:16.855Z,10.0
2022-12-29T13:15:47.821Z,10.0
2022-12-29T13:18:24.475Z,10.1
2022-12-29T13:20:55.270Z,10.0
2022-12-29T13:23:26.038Z,9.9
2022-12-29T13:25:56.862Z,10.0
2022-12-29T13:28:37.605Z,9.8
2022-12-29T13:31:08.385Z,9.8
2022-12-29T13:36:09.480Z,9.8
2022-12-29T13:38:40.357Z,9.8
2022-12-29T13:41:11.119Z,9.8
2022-12-29T13:43:51.928Z,9.7
2022-12-29T13:46:22.943Z,9.6
2022-12-29T13:48:54.008Z,9.6
2022-12-29T13:51:27.605Z,9.6
2022-12-29T13:53:48.972Z,9.6
2022-12-29T13:56:19.730Z,9.5
2022-12-29T13:59:00.517Z,9.5
2022-12-29T14:01:31.306Z,9.4
2022-12-29T14:04:02.738Z,9.2
2022-12-29T14:06:33.677Z,9.2
2022-12-29T14:09:04.455Z,9.2
2022-12-29T14:11:35.206Z,9.1
2022-12-29T14:16:46.140Z,9.1
2022-12-29T14:19:23.146Z,9.1
2022-12-29T14:21:53.928Z,9.1
2022-12-29T14:24:24.741Z,9.1
2022-12-29T14:27:05.530Z,9.1
2022-12-29T14:29:36.383Z,9.0
2022-12-29T14:32:07.167Z,8.9
2022-12-29T14:34:37.993Z,8.9
2022-12-29T14:37:03.026Z,8.8
2022-12-29T14:39:33.904Z,8.8
2022-12-29T14:42:14.707Z,8.8
2022-12-29T14:44:45.468Z,8.6
2022-12-29T14:47:16.303Z,8.7
2022-12-29T14:49:47.106Z,8.4
2022-12-29T14:52:17.860Z,8.5
2022-12-29T14:57:28.789Z,8.4
2022-12-29T14:59:59.574Z,8.4
2022-12-29T15:02:30.438Z,8.4
2022-12-29T15:05:01.759Z,8.3
2022-12-29T15:07:32.544Z,8.2
2022-12-29T15:10:03.297Z,8.0
2022-12-29T15:12:44.092Z,8.2
2022-12-29T15:15:14.907Z,8.2
2022-12-29T15:17:45.737Z,8.1
2022-12-29T15:20:16.522Z,8.2
2022-12-29T15:22:47.271Z,8.0
2022-12-29T15:25:18.062Z,8.0
2022-12-29T15:27:58.911Z,8.1
2022-12-29T15:30:29.685Z,8.1
2022-12-29T15:33:00.446Z,8.0
2022-12-29T15:38:01.359Z,8.0
2022-12-29T15:40:30.678Z,7.7
2022-12-29T15:43:14.993Z,7.6
2022-12-29T15:45:45.817Z,7.6
2022-12-29T15:48:16.870Z,7.5
2022-12-29T15:50:47.630Z,7.4
2022-12-29T15:53:18.385Z,7.5
2022-12-29T15:56:03.116Z,7.5
2022-12-29T15:58:34.387Z,7.4
2022-12-29T16:01:05.272Z,7.4
2022-12-29T16:03:36.508Z,7.5
2022-12-29T16:06:07.394Z,7.3
2022-12-29T16:08:38.173Z,7.2
2022-12-29T16:11:19.076Z,7.0
2022-12-29T16:13:49.884Z,7.0
2022-12-29T16:18:56.905Z,6.8
2022-12-29T16:23:48.238Z,6.7
2022-12-29T16:26:29.015Z,6.8
2022-12-29T16:28:59.795Z,6.7
2022-12-29T16:31:30.609Z,6.8
2022-12-29T16:34:01.421Z,6.8
2022-12-29T16:36:32.189Z,6.7
2022-12-29T16:39:02.966Z,6.7
2022-12-29T16:41:43.724Z,6.8
2022-12-29T16:44:14.503Z,6.8
2022-12-29T16:46:45.255Z,6.8
2022-12-29T16:49:23.083Z,6.8
2022-12-29T16:51:43.897Z,6.8
2022-12-29T16:54:24.644Z,6.8
2022-12-29T16:59:25.537Z,6.8
2022-12-29T17:01:56.402Z,6.8
2022-12-29T17:04:27.881Z,6.8
2022-12-29T17:06:58.642Z,6.9
2022-12-29T17:09:39.459Z,6.9
2022-12-29T17:12:11.055Z,6.9
2022-12-29T17:14:42.085Z,6.8
2022-12-29T17:17:12.884Z,6.9
2022-12-29T17:19:43.588Z,6.9
2022-12-29T17:22:14.422Z,6.8
2022-12-29T17:24:55.198Z,6.8
2022-12-29T17:27:26.035Z,6.8
2022-12-29T17:29:56.803Z,6.8
2022-12-29T17:32:27.590Z,6.8
2022-12-29T17:34:58.369Z,6.8
2022-12-29T17:40:09.481Z,6.7
2022-12-29T17:42:40.240Z,6.6
2022-12-29T17:45:11.059Z,6.5
2022-12-29T17:47:41.815Z,6.5
2022-12-29T17:50:12.627Z,6.4
2022-12-29T17:52:43.404Z,6.3
2022-12-29T17:55:32.984Z,6.3
2022-12-29T17:57:57.439Z,6.3
2022-12-29T18:00:28.279Z,6.2
2022-12-29T18:02:59.145Z,6.1
2022-12-29T18:05:30.423Z,6.1
2022-12-29T18:08:01.170Z,6.1
2022-12-29T18:10:41.953Z,6.0
2022-12-29T18:13:12.776Z,6.0
2022-12-29T18:15:44.080Z,6.0
2022-12-29T18:20:45.157Z,6.0
2022-12-29T18:23:15.941Z,6.0
2022-12-29T18:25:56.743Z,6.1
2022-12-29T18:28:24.010Z,6.3
2022-12-29T18:30:54.814Z,6.4
2022-12-29T18:33:26.577Z,6.8
2022-12-29T18:35:57.593Z,6.7
2022-12-29T18:38:28.417Z,6.6
2022-12-29T18:41:09.197Z,6.5
2022-12-29T18:43:40.279Z,6.4
2022-12-29T18:46:11.101Z,6.4
2022-12-29T18:48:44.233Z,6.5
2022-12-29T18:51:15.010Z,6.5
2022-12-29T18:53:55.769Z,6.5
2022-12-29T18:56:26.554Z,6.4
2022-12-29T19:01:27.533Z,6.1
2022-12-29T19:03:58.584Z,6.0
2022-12-29T19:06:29.347Z,6.0
2022-12-29T19:09:10.109Z,6.0
2022-12-29T19:11:40.896Z,5.9
2022-12-29T19:14:11.663Z,5.9
2022-12-29T19:16:42.477Z,5.8
2022-12-29T19:19:13.263Z,5.8
2022-12-29T19:21:44.022Z,5.7
2022-12-29T19:24:24.791Z,5.7
2022-12-29T19:26:55.614Z,5.6
2022-12-29T19:29:26.377Z,5.6
2022-12-29T19:31:57.187Z,5.5
2022-12-29T19:34:28.001Z,5.5
2022-12-29T19:36:58.824Z,5.4
2022-12-29T19:42:09.760Z,5.2
2022-12-29T19:44:40.525Z,5.2
2022-12-29T19:47:11.587Z,5.1
2022-12-29T19:49:47.496Z,4.8
2022-12-29T19:52:08.266Z,4.7
2022-12-29T19:54:49.091Z,4.6
2022-12-29T19:57:19.870Z,4.6
2022-12-29T19:59:50.630Z,4.5
2022-12-29T20:02:21.494Z,4.5
2022-12-29T20:04:52.779Z,4.3
2022-12-29T20:07:33.588Z,4.3
2022-12-29T20:10:04.340Z,4.2
2022-12-29T20:12:35.131Z,4.1
2022-12-29T20:15:05.880Z,4.1
2022-12-29T20:18:11.355Z,4.0
2022-12-29T20:22:49.649Z,3.9
2022-12-29T20:25:44.572Z,3.9
2022-12-29T20:27:56.064Z,3.9
2022-12-29T20:30:26.949Z,3.9
2022-12-29T20:32:57.709Z,3.8
2022-12-29T20:35:29.375Z,3.8
2022-12-29T20:38:10.198Z,3.7
2022-12-29T20:40:46.081Z,3.7
2022-12-29T20:43:07.188Z,3.7
2022-12-29T20:45:38.036Z,3.7
2022-12-29T20:48:08.855Z,3.7
2022-12-29T20:50:39.627Z,3.8
2022-12-29T20:53:20.401Z,3.7
2022-12-29T20:55:51.216Z,3.8
2022-12-29T20:58:23.815Z,3.8
2022-12-29T21:03:27.702Z,3.9
2022-12-29T21:06:08.651Z,3.9
2022-12-29T21:08:39.428Z,3.9
2022-12-29T21:11:10.290Z,4.0
2022-12-29T21:13:41.074Z,4.0
2022-12-29T21:16:12.088Z,4.1
2022-12-29T21:18:43.035Z,4.1
2022-12-29T21:21:23.845Z,4.1
2022-12-29T21:23:54.629Z,4.0
2022-12-29T21:26:25.379Z,4.0
2022-12-29T21:28:56.173Z,3.9
2022-12-29T21:31:27.035Z,3.9
2022-12-29T21:33:57.861Z,3.9
2022-12-29T21:36:38.648Z,3.9
2022-12-29T21:39:09.621Z,3.8
2022-12-29T21:44:10.573Z,3.8
2022-12-29T21:46:41.385Z,3.7
2022-12-29T21:49:12.235Z,3.7
2022-12-29T21:51:52.994Z,3.8
2022-12-29T21:54:23.771Z,4.0
2022-12-29T21:56:54.534Z,4.0
2022-12-29T21:59:21.430Z,4.1
2022-12-29T22:01:52.309Z,4.2
2022-12-29T22:04:33.758Z,4.2
2022-12-29T22:07:04.551Z,4.2
2022-12-29T22:09:40.013Z,4.2
2022-12-29T22:12:04.071Z,4.2
2022-12-29T22:14:34.814Z,4.1
2022-12-29T22:17:08.233Z,4.1
2022-12-29T22:19:52.739Z,4.1
2022-12-29T22:24:53.695Z,4.0
2022-12-29T22:27:24.470Z,3.9
2022-12-29T22:29:55.232Z,4.0
2022-12-29T22:32:25.996Z,4.0
2022-12-29T22:35:08.224Z,4.0
2022-12-29T22:37:29.147Z,4.0
2022-12-29T22:39:59.929Z,4.0
2022-12-29T22:42:30.707Z,4.0
2022-12-29T22:45:01.482Z,4.0
2022-12-29T22:47:32.301Z,3.9
2022-12-29T22:50:13.108Z,3.9
2022-12-29T22:52:43.874Z,3.9
2022-12-29T22:55:14.675Z,3.9
2022-12-29T22:57:45.454Z,3.9
2022-12-29T23:00:16.199Z,3.9
2022-12-29T23:05:37.130Z,3.8
2022-12-29T23:07:57.864Z,3.8
2022-12-29T23:10:28.709Z,3.8
2022-12-29T23:12:59.455Z,3.7
2022-12-29T23:15:40.300Z,3.8
2022-12-29T23:18:11.255Z,3.7
2022-12-29T23:20:42.029Z,3.7
2022-12-29T23:23:12.776Z,3.7
2022-12-29T23:25:43.631Z,3.7
2022-12-29T23:28:14.414Z,3.6
2022-12-29T23:30:45.170Z,3.6
2022-12-29T23:33:26.035Z,3.6
2022-12-29T23:35:56.853Z,3.5
2022-12-29T23:38:27.616Z,3.5
2022-12-29T23:40:58.402Z,3.5
2022-12-29T23:46:09.386Z,3.5
2022-12-29T23:48:40.423Z,3.4
2022-12-29T23:51:11.212Z,3.4
2022-12-29T23:53:42.073Z,3.4
2022-12-29T23:56:12.918Z,3.4
2022-12-29T23:58:43.715Z,3.4
